createdAt,value
2023-03-11T00:05:08.680Z,1006
2023-03-11T00:15:08.596Z,1006
2023-03-11T00:25:08.716Z,1006
2023-03-11T00:35:08.588Z,1006
2023-03-11T00:45:08.694Z,1006
2023-03-11T00:55:08.589Z,1006
2023-03-11T01:05:08.740Z,1006
2023-03-11T01:15:08.563Z,1006
2023-03-11T01:25:08.681Z,1006
2023-03-11T01:35:08.765Z,1006
2023-03-11T01:45:08.703Z,1006
2023-03-11T01:55:08.770Z,1006
2023-03-11T02:05:08.669Z,1005
2023-03-11T02:15:08.749Z,1005
2023-03-11T02:25:08.670Z,1005
2023-03-11T02:35:08.767Z,1005
2023-03-11T02:45:08.696Z,1005
2023-03-11T02:55:08.773Z,1005
2023-03-11T03:05:08.873Z,1005
2023-03-11T03:15:08.751Z,1005
2023-03-11T03:25:08.868Z,1005
2023-03-11T03:35:08.741Z,1005
2023-03-11T03:45:08.881Z,1005
2023-03-11T03:55:08.723Z,1005
2023-03-11T04:05:08.862Z,1005
2023-03-11T04:15:08.940Z,1005
2023-03-11T04:25:08.859Z,1005
2023-03-11T04:35:08.941Z,1005
2023-03-11T04:45:08.834Z,1005
2023-03-11T04:55:08.906Z,1005
2023-03-11T05:05:08.846Z,1005
2023-03-11T05:15:08.928Z,1005
2023-03-11T05:25:08.844Z,1006
2023-03-11T05:35:08.897Z,1006
2023-03-11T05:45:09.032Z,1006
2023-03-11T05:55:08.923Z,1006
2023-03-11T06:05:10.460Z,1006
2023-03-11T06:15:08.910Z,1006
2023-03-11T06:25:09.022Z,1006
2023-03-11T06:35:08.878Z,1005
2023-03-11T06:45:09.001Z,1006
2023-03-11T06:55:08.901Z,1006
2023-03-11T07:05:09.025Z,1005
2023-03-11T07:15:09.079Z,1005
2023-03-11T07:25:08.998Z,1006
2023-03-11T07:35:09.099Z,1006
2023-03-11T07:45:09.020Z,1006
2023-03-11T07:55:09.074Z,1005
2023-03-11T08:05:08.991Z,1006
2023-03-11T08:15:10.092Z,1006
2023-03-11T08:25:09.172Z,1006
2023-03-11T08:35:09.067Z,1006
2023-03-11T08:45:09.199Z,1006
2023-03-11T08:55:09.060Z,1006
2023-03-11T09:05:09.202Z,1006
2023-03-11T09:15:09.046Z,1006
2023-03-11T09:25:09.196Z,1007
2023-03-11T09:35:09.028Z,1007
2023-03-11T09:45:09.162Z,1007
2023-03-11T09:55:09.249Z,1007
2023-03-11T10:05:09.243Z,1007
2023-03-11T10:15:09.326Z,1007
2023-03-11T10:25:09.214Z,1007
2023-03-11T10:35:09.273Z,1007
2023-03-11T10:45:09.181Z,1007
2023-03-11T10:55:09.252Z,1008
2023-03-11T11:05:09.199Z,1008
2023-03-11T11:15:09.296Z,1008
2023-03-11T11:25:10.003Z,1008
2023-03-11T11:35:09.264Z,1008
2023-03-11T11:45:09.374Z,1008
2023-03-11T11:55:09.293Z,1008
2023-03-11T12:05:09.462Z,1008
2023-03-11T12:15:09.263Z,1008
2023-03-11T12:25:09.722Z,1008
2023-03-11T12:35:09.309Z,1008
2023-03-11T12:45:09.458Z,1008
2023-03-11T12:55:09.294Z,1008
2023-03-11T13:05:09.321Z,1008
2023-03-11T13:15:09.347Z,1008
2023-03-11T13:25:09.470Z,1008
2023-03-11T13:35:09.333Z,1008
2023-03-11T13:45:09.430Z,1007
2023-03-11T13:55:09.362Z,1007
2023-03-11T14:05:09.491Z,1007
2023-03-11T14:15:09.365Z,1007
2023-03-11T14:25:09.504Z,1007
2023-03-11T14:35:09.389Z,1006
2023-03-11T14:45:09.496Z,1006
2023-03-11T14:55:09.575Z,1006
2023-03-11T15:05:09.484Z,1005
2023-03-11T15:15:09.533Z,1005
2023-03-11T15:25:09.489Z,1005
2023-03-11T15:35:09.564Z,1005
2023-03-11T15:45:09.501Z,1004
2023-03-11T15:55:09.549Z,1004
2023-03-11T16:05:09.572Z,1004
2023-03-11T16:15:09.522Z,1004
2023-03-11T16:25:09.685Z,1004
2023-03-11T16:35:09.546Z,1004
2023-03-11T16:45:09.662Z,1004
2023-03-11T16:55:09.517Z,1004
2023-03-11T17:05:09.659Z,1004
2023-03-11T17:15:09.716Z,1003
2023-03-11T17:25:09.630Z,1003
2023-03-11T17:35:09.694Z,1003
2023-03-11T17:45:09.699Z,1003
2023-03-11T17:55:09.655Z,1003
2023-03-11T18:05:09.589Z,1003
2023-03-11T18:15:09.673Z,1003
2023-03-11T18:25:09.841Z,1002
2023-03-11T18:35:09.696Z,1002
2023-03-11T18:45:09.804Z,1002
2023-03-11T18:55:09.662Z,1002
2023-03-11T19:05:09.828Z,1002
2023-03-11T19:15:09.718Z,1002
2023-03-11T19:25:09.808Z,1001
2023-03-11T19:35:10.528Z,1001
2023-03-11T19:45:09.870Z,1001
2023-03-11T19:55:09.911Z,1001
2023-03-11T20:05:09.848Z,1001
2023-03-11T20:15:09.902Z,1001
2023-03-11T20:25:09.795Z,1001
2023-03-11T20:35:09.965Z,1000
2023-03-11T20:45:09.946Z,1000
2023-03-11T20:55:10.081Z,1000
2023-03-11T21:05:09.862Z,1000
2023-03-11T21:15:09.974Z,1001
2023-03-11T21:25:10.015Z,1000
2023-03-11T21:35:09.971Z,1000
2023-03-11T21:45:09.854Z,1000
2023-03-11T21:55:09.967Z,1000
2023-03-11T22:05:09.843Z,1000
2023-03-11T22:15:10.053Z,1000
2023-03-11T22:25:10.082Z,1000
2023-03-11T22:35:09.911Z,1000
2023-03-11T22:45:10.044Z,1000
2023-03-11T22:55:09.916Z,1000
2023-03-11T23:05:10.054Z,1000
2023-03-11T23:15:09.944Z,1000
2023-03-11T23:25:10.055Z,1000
2023-03-11T23:35:09.905Z,1000
2023-03-11T23:45:10.061Z,1000
2023-03-11T23:55:10.160Z,1000
